sensor_id;sensor_type;location;lat;lon;timestamp;P1;durP1;ratioP1;P2;durP2;ratioP2
42066;SDS011;27734;47.028;28.820;2022-10-24T00:01:08;25.00;;;12.43;;
42066;SDS011;27734;47.028;28.820;2022-10-24T00:03:37;24.17;;;12.70;;
42066;SDS011;27734;47.028;28.820;2022-10-24T00:06:07;24.43;;;12.80;;
42066;SDS011;27734;47.028;28.820;2022-10-24T00:08:37;25.20;;;12.57;;
42066;SDS011;27734;47.028;28.820;2022-10-24T00:11:07;26.87;;;13.03;;
42066;SDS011;27734;47.028;28.820;2022-10-24T00:13:37;25.17;;;13.47;;
42066;SDS011;27734;47.028;28.820;2022-10-24T00:16:06;24.60;;;12.97;;
42066;SDS011;27734;47.028;28.820;2022-10-24T00:18:35;27.40;;;13.77;;
42066;SDS011;27734;47.028;28.820;2022-10-24T00:21:05;26.57;;;14.07;;
42066;SDS011;27734;47.028;28.820;2022-10-24T00:23:33;25.60;;;13.20;;
42066;SDS011;27734;47.028;28.820;2022-10-24T00:26:02;24.83;;;13.30;;
42066;SDS011;27734;47.028;28.820;2022-10-24T00:28:33;24.67;;;13.23;;
42066;SDS011;27734;47.028;28.820;2022-10-24T00:31:06;22.77;;;12.67;;
42066;SDS011;27734;47.028;28.820;2022-10-24T00:33:38;23.83;;;12.57;;
42066;SDS011;27734;47.028;28.820;2022-10-24T00:36:09;25.63;;;12.87;;
42066;SDS011;27734;47.028;28.820;2022-10-24T00:38:39;23.20;;;12.60;;
42066;SDS011;27734;47.028;28.820;2022-10-24T00:41:07;25.33;;;13.20;;
42066;SDS011;27734;47.028;28.820;2022-10-24T00:43:40;25.33;;;12.97;;
42066;SDS011;27734;47.028;28.820;2022-10-24T00:46:08;24.77;;;12.30;;
42066;SDS011;27734;47.028;28.820;2022-10-24T00:48:38;25.20;;;13.37;;
42066;SDS011;27734;47.028;28.820;2022-10-24T00:51:10;23.93;;;13.33;;
42066;SDS011;27734;47.028;28.820;2022-10-24T00:53:47;24.63;;;13.80;;
42066;SDS011;27734;47.028;28.820;2022-10-24T00:56:18;25.60;;;12.90;;
42066;SDS011;27734;47.028;28.820;2022-10-24T00:58:49;24.63;;;13.50;;
42066;SDS011;27734;47.028;28.820;2022-10-24T01:01:19;28.37;;;13.70;;
42066;SDS011;27734;47.028;28.820;2022-10-24T01:03:49;27.80;;;13.57;;
42066;SDS011;27734;47.028;28.820;2022-10-24T01:06:22;26.80;;;13.80;;
42066;SDS011;27734;47.028;28.820;2022-10-24T01:09:09;24.73;;;13.53;;
42066;SDS011;27734;47.028;28.820;2022-10-24T01:11:52;26.00;;;14.33;;
42066;SDS011;27734;47.028;28.820;2022-10-24T01:14:32;24.40;;;13.37;;
42066;SDS011;27734;47.028;28.820;2022-10-24T01:17:12;25.73;;;13.43;;
42066;SDS011;27734;47.028;28.820;2022-10-24T01:22:55;24.12;;;13.08;;
42066;SDS011;27734;47.028;28.820;2022-10-24T01:25:35;26.80;;;13.87;;
42066;SDS011;27734;47.028;28.820;2022-10-24T01:28:13;25.43;;;13.03;;
42066;SDS011;27734;47.028;28.820;2022-10-24T01:30:44;24.03;;;13.03;;
42066;SDS011;27734;47.028;28.820;2022-10-24T01:33:19;25.13;;;13.30;;
42066;SDS011;27734;47.028;28.820;2022-10-24T01:35:53;25.43;;;13.27;;
42066;SDS011;27734;47.028;28.820;2022-10-24T01:40:59;24.73;;;12.53;;
42066;SDS011;27734;47.028;28.820;2022-10-24T01:43:32;23.77;;;13.27;;
42066;SDS011;27734;47.028;28.820;2022-10-24T01:46:05;23.57;;;12.33;;
42066;SDS011;27734;47.028;28.820;2022-10-24T01:48:38;23.67;;;12.60;;
42066;SDS011;27734;47.028;28.820;2022-10-24T01:51:10;26.57;;;13.23;;
42066;SDS011;27734;47.028;28.820;2022-10-24T01:53:41;24.85;;;12.90;;
42066;SDS011;27734;47.028;28.820;2022-10-24T01:56:11;25.10;;;13.30;;
42066;SDS011;27734;47.028;28.820;2022-10-24T01:58:40;25.87;;;13.43;;
42066;SDS011;27734;47.028;28.820;2022-10-24T02:01:09;24.33;;;13.13;;
42066;SDS011;27734;47.028;28.820;2022-10-24T02:03:43;26.30;;;13.75;;
42066;SDS011;27734;47.028;28.820;2022-10-24T02:06:14;25.07;;;12.43;;
42066;SDS011;27734;47.028;28.820;2022-10-24T02:08:46;25.10;;;13.33;;
42066;SDS011;27734;47.028;28.820;2022-10-24T02:11:18;23.70;;;12.90;;
42066;SDS011;27734;47.028;28.820;2022-10-24T02:13:48;26.63;;;13.37;;
42066;SDS011;27734;47.028;28.820;2022-10-24T02:16:22;26.20;;;13.37;;
42066;SDS011;27734;47.028;28.820;2022-10-24T02:18:51;23.67;;;12.77;;
42066;SDS011;27734;47.028;28.820;2022-10-24T02:21:26;27.37;;;13.60;;
42066;SDS011;27734;47.028;28.820;2022-10-24T02:23:59;27.80;;;14.57;;
42066;SDS011;27734;47.028;28.820;2022-10-24T02:26:31;28.37;;;14.47;;
42066;SDS011;27734;47.028;28.820;2022-10-24T02:29:06;26.37;;;13.10;;
42066;SDS011;27734;47.028;28.820;2022-10-24T02:31:38;24.57;;;12.83;;
42066;SDS011;27734;47.028;28.820;2022-10-24T02:36:40;23.93;;;12.80;;
42066;SDS011;27734;47.028;28.820;2022-10-24T02:39:11;25.97;;;13.83;;
42066;SDS011;27734;47.028;28.820;2022-10-24T02:41:41;24.83;;;13.10;;
42066;SDS011;27734;47.028;28.820;2022-10-24T02:44:11;25.93;;;13.10;;
42066;SDS011;27734;47.028;28.820;2022-10-24T02:46:42;25.03;;;13.13;;
42066;SDS011;27734;47.028;28.820;2022-10-24T02:49:13;23.67;;;12.80;;
42066;SDS011;27734;47.028;28.820;2022-10-24T02:51:42;24.17;;;13.23;;
42066;SDS011;27734;47.028;28.820;2022-10-24T02:54:12;25.87;;;13.00;;
42066;SDS011;27734;47.028;28.820;2022-10-24T02:56:42;26.53;;;13.87;;
42066;SDS011;27734;47.028;28.820;2022-10-24T02:59:13;25.70;;;13.50;;
42066;SDS011;27734;47.028;28.820;2022-10-24T03:01:41;24.97;;;13.13;;
42066;SDS011;27734;47.028;28.820;2022-10-24T03:04:10;26.20;;;13.50;;
42066;SDS011;27734;47.028;28.820;2022-10-24T03:06:38;27.37;;;13.67;;
42066;SDS011;27734;47.028;28.820;2022-10-24T03:09:07;23.13;;;12.83;;
42066;SDS011;27734;47.028;28.820;2022-10-24T03:11:38;23.30;;;12.80;;
42066;SDS011;27734;47.028;28.820;2022-10-24T03:14:07;25.97;;;12.20;;
42066;SDS011;27734;47.028;28.820;2022-10-24T03:16:35;24.10;;;12.43;;
42066;SDS011;27734;47.028;28.820;2022-10-24T03:19:04;24.90;;;12.97;;
42066;SDS011;27734;47.028;28.820;2022-10-24T03:21:32;22.17;;;11.90;;
42066;SDS011;27734;47.028;28.820;2022-10-24T03:24:00;21.10;;;11.67;;
42066;SDS011;27734;47.028;28.820;2022-10-24T03:26:29;22.93;;;11.53;;
42066;SDS011;27734;47.028;28.820;2022-10-24T03:28:58;20.67;;;10.50;;
42066;SDS011;27734;47.028;28.820;2022-10-24T03:31:26;20.40;;;11.27;;
42066;SDS011;27734;47.028;28.820;2022-10-24T03:33:56;20.40;;;10.60;;
42066;SDS011;27734;47.028;28.820;2022-10-24T03:36:24;19.97;;;10.63;;
42066;SDS011;27734;47.028;28.820;2022-10-24T03:38:53;20.07;;;10.90;;
42066;SDS011;27734;47.028;28.820;2022-10-24T03:41:21;20.70;;;11.63;;
42066;SDS011;27734;47.028;28.820;2022-10-24T03:43:50;20.17;;;10.40;;
42066;SDS011;27734;47.028;28.820;2022-10-24T03:46:18;33.97;;;17.63;;
42066;SDS011;27734;47.028;28.820;2022-10-24T03:48:47;63.03;;;33.73;;
42066;SDS011;27734;47.028;28.820;2022-10-24T03:51:15;77.13;;;39.43;;
42066;SDS011;27734;47.028;28.820;2022-10-24T03:53:43;75.97;;;40.40;;
42066;SDS011;27734;47.028;28.820;2022-10-24T03:56:14;67.73;;;33.23;;
42066;SDS011;27734;47.028;28.820;2022-10-24T03:58:43;49.17;;;26.73;;
42066;SDS011;27734;47.028;28.820;2022-10-24T04:01:11;39.93;;;22.13;;
42066;SDS011;27734;47.028;28.820;2022-10-24T04:03:43;31.53;;;17.77;;
42066;SDS011;27734;47.028;28.820;2022-10-24T04:06:12;33.40;;;18.03;;
42066;SDS011;27734;47.028;28.820;2022-10-24T04:08:40;30.67;;;16.43;;
42066;SDS011;27734;47.028;28.820;2022-10-24T04:11:08;31.87;;;15.93;;
42066;SDS011;27734;47.028;28.820;2022-10-24T04:13:37;29.23;;;16.00;;
42066;SDS011;27734;47.028;28.820;2022-10-24T04:16:07;29.80;;;16.67;;
42066;SDS011;27734;47.028;28.820;2022-10-24T04:18:35;29.63;;;15.87;;
42066;SDS011;27734;47.028;28.820;2022-10-24T04:21:04;32.50;;;16.40;;
42066;SDS011;27734;47.028;28.820;2022-10-24T04:23:33;33.50;;;17.65;;
42066;SDS011;27734;47.028;28.820;2022-10-24T04:26:08;32.60;;;17.17;;
42066;SDS011;27734;47.028;28.820;2022-10-24T04:28:38;42.67;;;19.83;;
42066;SDS011;27734;47.028;28.820;2022-10-24T04:31:06;37.57;;;18.53;;
42066;SDS011;27734;47.028;28.820;2022-10-24T04:33:35;54.27;;;24.47;;
42066;SDS011;27734;47.028;28.820;2022-10-24T04:36:04;50.57;;;24.20;;
42066;SDS011;27734;47.028;28.820;2022-10-24T04:38:33;43.37;;;21.47;;
42066;SDS011;27734;47.028;28.820;2022-10-24T04:41:01;40.97;;;20.73;;
42066;SDS011;27734;47.028;28.820;2022-10-24T04:43:30;37.57;;;18.03;;
42066;SDS011;27734;47.028;28.820;2022-10-24T04:45:58;50.43;;;19.33;;
42066;SDS011;27734;47.028;28.820;2022-10-24T04:48:28;45.20;;;18.87;;
42066;SDS011;27734;47.028;28.820;2022-10-24T04:50:56;33.17;;;17.60;;
42066;SDS011;27734;47.028;28.820;2022-10-24T04:53:25;36.27;;;17.70;;
42066;SDS011;27734;47.028;28.820;2022-10-24T04:55:53;40.93;;;18.10;;
42066;SDS011;27734;47.028;28.820;2022-10-24T04:58:22;45.53;;;18.03;;
42066;SDS011;27734;47.028;28.820;2022-10-24T05:00:50;35.87;;;17.47;;
42066;SDS011;27734;47.028;28.820;2022-10-24T05:03:19;31.40;;;16.83;;
42066;SDS011;27734;47.028;28.820;2022-10-24T05:05:49;34.63;;;17.20;;
42066;SDS011;27734;47.028;28.820;2022-10-24T05:08:18;30.87;;;16.33;;
42066;SDS011;27734;47.028;28.820;2022-10-24T05:10:48;33.70;;;16.90;;
42066;SDS011;27734;47.028;28.820;2022-10-24T05:13:16;36.63;;;16.43;;
42066;SDS011;27734;47.028;28.820;2022-10-24T05:15:45;30.77;;;16.83;;
42066;SDS011;27734;47.028;28.820;2022-10-24T05:18:13;32.93;;;16.10;;
42066;SDS011;27734;47.028;28.820;2022-10-24T05:20:42;30.20;;;15.23;;
42066;SDS011;27734;47.028;28.820;2022-10-24T05:23:10;29.90;;;14.87;;
42066;SDS011;27734;47.028;28.820;2022-10-24T05:25:38;27.13;;;14.63;;
42066;SDS011;27734;47.028;28.820;2022-10-24T05:28:07;29.10;;;14.93;;
42066;SDS011;27734;47.028;28.820;2022-10-24T05:30:35;32.20;;;16.87;;
42066;SDS011;27734;47.028;28.820;2022-10-24T05:33:04;31.30;;;15.45;;
42066;SDS011;27734;47.028;28.820;2022-10-24T05:35:32;31.57;;;16.50;;
42066;SDS011;27734;47.028;28.820;2022-10-24T05:38:01;37.00;;;17.53;;
42066;SDS011;27734;47.028;28.820;2022-10-24T05:40:32;34.07;;;18.33;;
42066;SDS011;27734;47.028;28.820;2022-10-24T05:43:01;35.57;;;17.70;;
42066;SDS011;27734;47.028;28.820;2022-10-24T05:45:30;37.77;;;19.73;;
42066;SDS011;27734;47.028;28.820;2022-10-24T05:48:00;35.33;;;20.10;;
42066;SDS011;27734;47.028;28.820;2022-10-24T05:50:31;39.00;;;19.03;;
42066;SDS011;27734;47.028;28.820;2022-10-24T05:53:03;30.93;;;17.27;;
42066;SDS011;27734;47.028;28.820;2022-10-24T05:55:33;32.13;;;17.47;;
42066;SDS011;27734;47.028;28.820;2022-10-24T05:58:02;35.70;;;17.87;;
42066;SDS011;27734;47.028;28.820;2022-10-24T06:00:31;36.43;;;17.80;;
42066;SDS011;27734;47.028;28.820;2022-10-24T06:03:01;37.83;;;18.90;;
42066;SDS011;27734;47.028;28.820;2022-10-24T06:05:32;38.93;;;18.80;;
42066;SDS011;27734;47.028;28.820;2022-10-24T06:08:02;39.93;;;18.47;;
42066;SDS011;27734;47.028;28.820;2022-10-24T06:10:31;35.73;;;18.37;;
42066;SDS011;27734;47.028;28.820;2022-10-24T06:13:07;37.43;;;18.20;;
42066;SDS011;27734;47.028;28.820;2022-10-24T06:15:36;37.00;;;17.20;;
42066;SDS011;27734;47.028;28.820;2022-10-24T06:18:07;33.43;;;18.30;;
42066;SDS011;27734;47.028;28.820;2022-10-24T06:20:37;31.80;;;17.30;;
42066;SDS011;27734;47.028;28.820;2022-10-24T06:23:09;32.00;;;16.73;;
42066;SDS011;27734;47.028;28.820;2022-10-24T06:25:41;33.83;;;17.80;;
42066;SDS011;27734;47.028;28.820;2022-10-24T06:28:14;32.63;;;17.73;;
42066;SDS011;27734;47.028;28.820;2022-10-24T06:34:08;33.27;;;17.57;;
42066;SDS011;27734;47.028;28.820;2022-10-24T06:36:43;38.60;;;17.97;;
42066;SDS011;27734;47.028;28.820;2022-10-24T06:39:14;38.10;;;19.37;;
42066;SDS011;27734;47.028;28.820;2022-10-24T06:41:43;37.40;;;19.77;;
42066;SDS011;27734;47.028;28.820;2022-10-24T06:44:14;36.00;;;19.77;;
42066;SDS011;27734;47.028;28.820;2022-10-24T06:46:45;38.73;;;20.10;;
42066;SDS011;27734;47.028;28.820;2022-10-24T06:49:14;35.17;;;19.23;;
42066;SDS011;27734;47.028;28.820;2022-10-24T06:51:44;38.57;;;20.13;;
42066;SDS011;27734;47.028;28.820;2022-10-24T06:54:19;38.60;;;19.63;;
42066;SDS011;27734;47.028;28.820;2022-10-24T06:56:52;34.80;;;18.87;;
42066;SDS011;27734;47.028;28.820;2022-10-24T06:59:22;37.03;;;20.72;;
42066;SDS011;27734;47.028;28.820;2022-10-24T07:02:09;38.30;;;19.93;;
42066;SDS011;27734;47.028;28.820;2022-10-24T07:04:55;38.17;;;20.60;;
42066;SDS011;27734;47.028;28.820;2022-10-24T07:07:27;36.13;;;18.77;;
42066;SDS011;27734;47.028;28.820;2022-10-24T07:10:13;34.67;;;19.93;;
42066;SDS011;27734;47.028;28.820;2022-10-24T07:13:01;33.40;;;19.90;;
42066;SDS011;27734;47.028;28.820;2022-10-24T07:15:42;37.80;;;19.43;;
42066;SDS011;27734;47.028;28.820;2022-10-24T07:18:13;33.57;;;18.63;;
42066;SDS011;27734;47.028;28.820;2022-10-24T07:20:53;36.90;;;19.17;;
42066;SDS011;27734;47.028;28.820;2022-10-24T07:23:31;38.60;;;21.53;;
42066;SDS011;27734;47.028;28.820;2022-10-24T07:26:02;39.63;;;20.00;;
42066;SDS011;27734;47.028;28.820;2022-10-24T07:28:33;36.23;;;20.87;;
42066;SDS011;27734;47.028;28.820;2022-10-24T07:31:17;38.03;;;21.70;;
42066;SDS011;27734;47.028;28.820;2022-10-24T07:33:51;36.53;;;20.73;;
42066;SDS011;27734;47.028;28.820;2022-10-24T07:36:28;37.67;;;21.40;;
42066;SDS011;27734;47.028;28.820;2022-10-24T07:39:07;40.63;;;20.60;;
42066;SDS011;27734;47.028;28.820;2022-10-24T07:41:39;39.00;;;21.73;;
42066;SDS011;27734;47.028;28.820;2022-10-24T07:44:13;37.47;;;21.83;;
42066;SDS011;27734;47.028;28.820;2022-10-24T07:46:44;35.93;;;22.07;;
42066;SDS011;27734;47.028;28.820;2022-10-24T07:49:18;38.60;;;22.50;;
42066;SDS011;27734;47.028;28.820;2022-10-24T07:51:46;40.97;;;21.93;;
42066;SDS011;27734;47.028;28.820;2022-10-24T07:54:17;41.03;;;23.57;;
42066;SDS011;27734;47.028;28.820;2022-10-24T07:56:46;42.15;;;22.45;;
42066;SDS011;27734;47.028;28.820;2022-10-24T07:59:19;39.77;;;23.57;;
42066;SDS011;27734;47.028;28.820;2022-10-24T08:01:59;45.13;;;24.73;;
42066;SDS011;27734;47.028;28.820;2022-10-24T08:04:37;39.87;;;23.70;;
42066;SDS011;27734;47.028;28.820;2022-10-24T08:07:09;45.90;;;24.30;;
42066;SDS011;27734;47.028;28.820;2022-10-24T08:09:40;45.73;;;24.50;;
42066;SDS011;27734;47.028;28.820;2022-10-24T08:12:12;45.65;;;25.15;;
42066;SDS011;27734;47.028;28.820;2022-10-24T08:14:42;48.00;;;25.13;;
42066;SDS011;27734;47.028;28.820;2022-10-24T08:17:13;50.70;;;27.50;;
42066;SDS011;27734;47.028;28.820;2022-10-24T08:19:47;43.97;;;26.03;;
42066;SDS011;27734;47.028;28.820;2022-10-24T08:22:16;46.37;;;26.50;;
42066;SDS011;27734;47.028;28.820;2022-10-24T08:24:48;33.23;;;17.73;;
42066;SDS011;27734;47.028;28.820;2022-10-24T08:27:17;31.00;;;16.97;;
42066;SDS011;27734;47.028;28.820;2022-10-24T08:29:51;22.67;;;13.30;;
42066;SDS011;27734;47.028;28.820;2022-10-24T08:32:22;26.80;;;13.40;;
42066;SDS011;27734;47.028;28.820;2022-10-24T08:34:52;22.90;;;12.43;;
42066;SDS011;27734;47.028;28.820;2022-10-24T08:37:27;20.20;;;10.60;;
42066;SDS011;27734;47.028;28.820;2022-10-24T08:40:02;20.67;;;10.53;;
42066;SDS011;27734;47.028;28.820;2022-10-24T08:42:35;20.45;;;10.05;;
42066;SDS011;27734;47.028;28.820;2022-10-24T08:45:10;20.67;;;9.70;;
42066;SDS011;27734;47.028;28.820;2022-10-24T08:47:48;20.70;;;11.13;;
42066;SDS011;27734;47.028;28.820;2022-10-24T08:50:25;22.27;;;10.30;;
42066;SDS011;27734;47.028;28.820;2022-10-24T08:53:01;22.00;;;8.53;;
42066;SDS011;27734;47.028;28.820;2022-10-24T08:55:36;15.60;;;7.63;;
42066;SDS011;27734;47.028;28.820;2022-10-24T08:58:10;13.57;;;6.63;;
42066;SDS011;27734;47.028;28.820;2022-10-24T09:00:45;12.47;;;5.97;;
42066;SDS011;27734;47.028;28.820;2022-10-24T09:05:48;12.23;;;6.17;;
42066;SDS011;27734;47.028;28.820;2022-10-24T09:08:29;13.83;;;6.23;;
42066;SDS011;27734;47.028;28.820;2022-10-24T09:11:06;11.73;;;5.50;;
42066;SDS011;27734;47.028;28.820;2022-10-24T09:13:47;9.27;;;5.17;;
42066;SDS011;27734;47.028;28.820;2022-10-24T09:16:19;11.13;;;5.43;;
42066;SDS011;27734;47.028;28.820;2022-10-24T09:18:59;10.27;;;5.13;;
42066;SDS011;27734;47.028;28.820;2022-10-24T09:21:28;10.50;;;5.10;;
42066;SDS011;27734;47.028;28.820;2022-10-24T09:23:58;10.63;;;4.87;;
42066;SDS011;27734;47.028;28.820;2022-10-24T09:26:29;12.23;;;5.10;;
42066;SDS011;27734;47.028;28.820;2022-10-24T09:28:59;11.97;;;5.40;;
42066;SDS011;27734;47.028;28.820;2022-10-24T09:31:39;8.40;;;4.80;;
42066;SDS011;27734;47.028;28.820;2022-10-24T09:34:09;7.90;;;4.80;;
42066;SDS011;27734;47.028;28.820;2022-10-24T09:36:45;8.67;;;4.63;;
42066;SDS011;27734;47.028;28.820;2022-10-24T09:42:33;9.53;;;4.70;;
42066;SDS011;27734;47.028;28.820;2022-10-24T09:45:18;8.83;;;4.40;;
42066;SDS011;27734;47.028;28.820;2022-10-24T09:48:06;8.60;;;4.57;;
42066;SDS011;27734;47.028;28.820;2022-10-24T09:50:51;11.30;;;4.80;;
42066;SDS011;27734;47.028;28.820;2022-10-24T09:53:33;6.67;;;4.10;;
42066;SDS011;27734;47.028;28.820;2022-10-24T09:56:07;7.33;;;4.47;;
42066;SDS011;27734;47.028;28.820;2022-10-24T09:58:39;6.33;;;4.20;;
42066;SDS011;27734;47.028;28.820;2022-10-24T10:01:20;8.13;;;4.23;;
42066;SDS011;27734;47.028;28.820;2022-10-24T10:03:59;6.30;;;3.93;;
42066;SDS011;27734;47.028;28.820;2022-10-24T10:06:30;7.30;;;3.90;;
42066;SDS011;27734;47.028;28.820;2022-10-24T10:09:13;7.40;;;3.90;;
42066;SDS011;27734;47.028;28.820;2022-10-24T10:12:00;5.57;;;3.90;;
42066;SDS011;27734;47.028;28.820;2022-10-24T10:14:31;8.90;;;4.30;;
42066;SDS011;27734;47.028;28.820;2022-10-24T10:17:10;6.47;;;3.83;;
42066;SDS011;27734;47.028;28.820;2022-10-24T10:22:39;7.20;;;3.80;;
42066;SDS011;27734;47.028;28.820;2022-10-24T10:25:12;6.90;;;4.00;;
42066;SDS011;27734;47.028;28.820;2022-10-24T10:28:09;7.23;;;4.50;;
42066;SDS011;27734;47.028;28.820;2022-10-24T10:30:52;7.23;;;4.10;;
42066;SDS011;27734;47.028;28.820;2022-10-24T10:33:38;7.67;;;4.10;;
42066;SDS011;27734;47.028;28.820;2022-10-24T10:36:34;8.60;;;4.30;;
42066;SDS011;27734;47.028;28.820;2022-10-24T10:39:37;6.43;;;4.00;;
42066;SDS011;27734;47.028;28.820;2022-10-24T10:42:50;12.43;;;3.90;;
42066;SDS011;27734;47.028;28.820;2022-10-24T10:45:40;7.47;;;4.20;;
42066;SDS011;27734;47.028;28.820;2022-10-24T10:48:29;5.63;;;3.60;;
42066;SDS011;27734;47.028;28.820;2022-10-24T10:51:13;5.90;;;3.60;;
42066;SDS011;27734;47.028;28.820;2022-10-24T10:54:03;8.13;;;3.65;;
42066;SDS011;27734;47.028;28.820;2022-10-24T10:56:41;11.53;;;3.90;;
42066;SDS011;27734;47.028;28.820;2022-10-24T11:02:22;5.27;;;3.40;;
42066;SDS011;27734;47.028;28.820;2022-10-24T11:05:07;5.17;;;3.47;;
42066;SDS011;27734;47.028;28.820;2022-10-24T11:07:49;8.10;;;3.90;;
42066;SDS011;27734;47.028;28.820;2022-10-24T11:10:26;6.13;;;3.50;;
42066;SDS011;27734;47.028;28.820;2022-10-24T11:13:14;6.10;;;3.53;;
42066;SDS011;27734;47.028;28.820;2022-10-24T11:16:19;7.07;;;3.50;;
42066;SDS011;27734;47.028;28.820;2022-10-24T11:21:42;6.97;;;3.80;;
42066;SDS011;27734;47.028;28.820;2022-10-24T11:24:14;8.20;;;3.60;;
42066;SDS011;27734;47.028;28.820;2022-10-24T11:26:51;4.90;;;3.60;;
42066;SDS011;27734;47.028;28.820;2022-10-24T11:29:27;6.53;;;3.50;;
42066;SDS011;27734;47.028;28.820;2022-10-24T11:32:01;5.97;;;3.60;;
42066;SDS011;27734;47.028;28.820;2022-10-24T11:34:53;7.47;;;3.70;;
42066;SDS011;27734;47.028;28.820;2022-10-24T11:37:43;7.23;;;3.97;;
42066;SDS011;27734;47.028;28.820;2022-10-24T11:40:20;6.60;;;3.57;;
42066;SDS011;27734;47.028;28.820;2022-10-24T11:42:58;7.07;;;3.43;;
42066;SDS011;27734;47.028;28.820;2022-10-24T11:45:44;8.48;;;3.65;;
42066;SDS011;27734;47.028;28.820;2022-10-24T11:48:23;8.03;;;3.90;;
42066;SDS011;27734;47.028;28.820;2022-10-24T11:51:05;5.97;;;3.67;;
42066;SDS011;27734;47.028;28.820;2022-10-24T11:53:46;6.60;;;3.30;;
42066;SDS011;27734;47.028;28.820;2022-10-24T11:56:24;5.63;;;3.50;;
42066;SDS011;27734;47.028;28.820;2022-10-24T11:59:01;6.73;;;3.63;;
42066;SDS011;27734;47.028;28.820;2022-10-24T12:01:39;7.37;;;3.90;;
42066;SDS011;27734;47.028;28.820;2022-10-24T12:07:39;9.43;;;3.72;;
42066;SDS011;27734;47.028;28.820;2022-10-24T12:13:28;7.13;;;4.17;;
42066;SDS011;27734;47.028;28.820;2022-10-24T12:16:15;7.17;;;3.77;;
42066;SDS011;27734;47.028;28.820;2022-10-24T12:18:59;7.10;;;3.80;;
42066;SDS011;27734;47.028;28.820;2022-10-24T12:21:48;8.87;;;4.07;;
42066;SDS011;27734;47.028;28.820;2022-10-24T12:24:27;7.97;;;4.50;;
42066;SDS011;27734;47.028;28.820;2022-10-24T12:27:06;11.13;;;4.40;;
42066;SDS011;27734;47.028;28.820;2022-10-24T12:29:59;10.10;;;4.10;;
42066;SDS011;27734;47.028;28.820;2022-10-24T12:32:36;9.23;;;4.20;;
42066;SDS011;27734;47.028;28.820;2022-10-24T12:41:39;7.67;;;4.20;;
42066;SDS011;27734;47.028;28.820;2022-10-24T12:44:24;6.90;;;4.10;;
42066;SDS011;27734;47.028;28.820;2022-10-24T12:53:34;7.07;;;4.10;;
42066;SDS011;27734;47.028;28.820;2022-10-24T12:56:16;6.33;;;3.67;;
42066;SDS011;27734;47.028;28.820;2022-10-24T12:58:57;7.83;;;4.27;;
42066;SDS011;27734;47.028;28.820;2022-10-24T13:01:32;8.13;;;4.20;;
42066;SDS011;27734;47.028;28.820;2022-10-24T13:04:09;8.23;;;3.90;;
42066;SDS011;27734;47.028;28.820;2022-10-24T13:10:22;7.67;;;3.43;;
42066;SDS011;27734;47.028;28.820;2022-10-24T13:13:07;8.70;;;3.87;;
42066;SDS011;27734;47.028;28.820;2022-10-24T13:15:54;6.70;;;3.60;;
42066;SDS011;27734;47.028;28.820;2022-10-24T13:18:35;6.80;;;3.50;;
42066;SDS011;27734;47.028;28.820;2022-10-24T13:21:16;5.73;;;3.80;;
42066;SDS011;27734;47.028;28.820;2022-10-24T13:24:07;7.57;;;4.10;;
42066;SDS011;27734;47.028;28.820;2022-10-24T13:26:39;8.63;;;3.70;;
42066;SDS011;27734;47.028;28.820;2022-10-24T13:29:13;10.97;;;4.10;;
42066;SDS011;27734;47.028;28.820;2022-10-24T13:35:19;7.80;;;3.47;;
42066;SDS011;27734;47.028;28.820;2022-10-24T13:38:11;9.20;;;4.10;;
42066;SDS011;27734;47.028;28.820;2022-10-24T13:40:48;7.23;;;3.80;;
42066;SDS011;27734;47.028;28.820;2022-10-24T13:43:22;7.97;;;3.60;;
42066;SDS011;27734;47.028;28.820;2022-10-24T13:45:58;6.77;;;4.00;;
42066;SDS011;27734;47.028;28.820;2022-10-24T13:48:49;9.00;;;4.10;;
42066;SDS011;27734;47.028;28.820;2022-10-24T13:51:22;5.70;;;3.77;;
42066;SDS011;27734;47.028;28.820;2022-10-24T13:53:58;6.27;;;3.90;;
42066;SDS011;27734;47.028;28.820;2022-10-24T13:56:35;6.83;;;4.00;;
42066;SDS011;27734;47.028;28.820;2022-10-24T14:02:13;7.70;;;4.13;;
42066;SDS011;27734;47.028;28.820;2022-10-24T14:05:04;10.23;;;4.37;;
42066;SDS011;27734;47.028;28.820;2022-10-24T14:07:58;8.57;;;4.50;;
42066;SDS011;27734;47.028;28.820;2022-10-24T14:10:34;12.20;;;4.60;;
42066;SDS011;27734;47.028;28.820;2022-10-24T14:13:27;9.80;;;4.40;;
42066;SDS011;27734;47.028;28.820;2022-10-24T14:16:06;12.43;;;4.70;;
42066;SDS011;27734;47.028;28.820;2022-10-24T14:18:38;8.70;;;4.13;;
42066;SDS011;27734;47.028;28.820;2022-10-24T14:21:15;9.63;;;4.70;;
42066;SDS011;27734;47.028;28.820;2022-10-24T14:23:58;8.30;;;4.53;;
42066;SDS011;27734;47.028;28.820;2022-10-24T14:26:38;8.57;;;4.17;;
42066;SDS011;27734;47.028;28.820;2022-10-24T14:29:20;13.70;;;4.90;;
42066;SDS011;27734;47.028;28.820;2022-10-24T14:31:55;12.53;;;4.83;;
42066;SDS011;27734;47.028;28.820;2022-10-24T14:34:29;10.23;;;4.90;;
42066;SDS011;27734;47.028;28.820;2022-10-24T14:37:02;12.58;;;4.97;;
42066;SDS011;27734;47.028;28.820;2022-10-24T14:39:39;11.13;;;5.43;;
42066;SDS011;27734;47.028;28.820;2022-10-24T14:42:12;10.07;;;5.67;;
42066;SDS011;27734;47.028;28.820;2022-10-24T14:44:47;14.00;;;5.30;;
42066;SDS011;27734;47.028;28.820;2022-10-24T14:49:49;11.00;;;4.93;;
42066;SDS011;27734;47.028;28.820;2022-10-24T14:52:24;10.50;;;5.03;;
42066;SDS011;27734;47.028;28.820;2022-10-24T14:54:59;14.13;;;5.40;;
42066;SDS011;27734;47.028;28.820;2022-10-24T14:57:32;15.07;;;5.77;;
42066;SDS011;27734;47.028;28.820;2022-10-24T15:00:06;14.07;;;5.80;;
42066;SDS011;27734;47.028;28.820;2022-10-24T15:02:47;9.93;;;5.27;;
42066;SDS011;27734;47.028;28.820;2022-10-24T15:05:28;13.33;;;5.30;;
42066;SDS011;27734;47.028;28.820;2022-10-24T15:07:59;12.90;;;5.53;;
42066;SDS011;27734;47.028;28.820;2022-10-24T15:10:46;15.03;;;6.30;;
42066;SDS011;27734;47.028;28.820;2022-10-24T15:13:18;16.30;;;6.93;;
42066;SDS011;27734;47.028;28.820;2022-10-24T15:15:50;14.20;;;7.00;;
42066;SDS011;27734;47.028;28.820;2022-10-24T15:18:23;17.50;;;6.53;;
42066;SDS011;27734;47.028;28.820;2022-10-24T15:20:58;25.87;;;6.83;;
42066;SDS011;27734;47.028;28.820;2022-10-24T15:23:30;17.47;;;6.83;;
42066;SDS011;27734;47.028;28.820;2022-10-24T15:26:01;21.67;;;7.40;;
42066;SDS011;27734;47.028;28.820;2022-10-24T15:28:42;19.13;;;6.50;;
42066;SDS011;27734;47.028;28.820;2022-10-24T15:31:13;16.83;;;7.43;;
42066;SDS011;27734;47.028;28.820;2022-10-24T15:33:43;18.40;;;7.13;;
42066;SDS011;27734;47.028;28.820;2022-10-24T15:36:22;16.20;;;6.43;;
42066;SDS011;27734;47.028;28.820;2022-10-24T15:38:53;15.80;;;6.57;;
42066;SDS011;27734;47.028;28.820;2022-10-24T15:41:22;17.77;;;5.97;;
42066;SDS011;27734;47.028;28.820;2022-10-24T15:43:53;16.73;;;6.37;;
42066;SDS011;27734;47.028;28.820;2022-10-24T15:46:22;15.60;;;6.60;;
42066;SDS011;27734;47.028;28.820;2022-10-24T15:48:51;15.00;;;6.47;;
42066;SDS011;27734;47.028;28.820;2022-10-24T15:51:21;12.87;;;6.40;;
42066;SDS011;27734;47.028;28.820;2022-10-24T15:53:50;18.50;;;7.53;;
42066;SDS011;27734;47.028;28.820;2022-10-24T15:56:19;17.17;;;7.30;;
42066;SDS011;27734;47.028;28.820;2022-10-24T15:58:49;15.67;;;6.90;;